sensor_id;sensor_type;location;lat;lon;timestamp;P1;durP1;ratioP1;P2;durP2;ratioP2
67191;SDS011;54120;53.504;49.426;2022-07-09T00:01:48;13.57;;;10.00;;
67191;SDS011;54120;53.504;49.426;2022-07-09T00:04:14;13.18;;;9.88;;
67191;SDS011;54120;53.504;49.426;2022-07-09T00:06:40;12.80;;;10.27;;
67191;SDS011;54120;53.504;49.426;2022-07-09T00:09:06;10.88;;;9.60;;
67191;SDS011;54120;53.504;49.426;2022-07-09T00:11:32;13.35;;;10.00;;
67191;SDS011;54120;53.504;49.426;2022-07-09T00:13:58;12.52;;;9.43;;
67191;SDS011;54120;53.504;49.426;2022-07-09T00:16:25;14.68;;;10.40;;
67191;SDS011;54120;53.504;49.426;2022-07-09T00:18:51;13.30;;;10.55;;
67191;SDS011;54120;53.504;49.426;2022-07-09T00:21:17;14.10;;;9.35;;
67191;SDS011;54120;53.504;49.426;2022-07-09T00:23:43;12.40;;;9.75;;
67191;SDS011;54120;53.504;49.426;2022-07-09T00:26:09;15.27;;;9.43;;
67191;SDS011;54120;53.504;49.426;2022-07-09T00:28:35;12.15;;;10.13;;
67191;SDS011;54120;53.504;49.426;2022-07-09T00:31:01;13.88;;;9.23;;
67191;SDS011;54120;53.504;49.426;2022-07-09T00:33:27;10.68;;;9.60;;
67191;SDS011;54120;53.504;49.426;2022-07-09T00:35:53;11.20;;;9.95;;
67191;SDS011;54120;53.504;49.426;2022-07-09T00:38:20;12.35;;;10.27;;
67191;SDS011;54120;53.504;49.426;2022-07-09T00:40:46;14.82;;;9.73;;
67191;SDS011;54120;53.504;49.426;2022-07-09T00:43:16;15.30;;;10.02;;
67191;SDS011;54120;53.504;49.426;2022-07-09T00:45:46;11.43;;;9.98;;
67191;SDS011;54120;53.504;49.426;2022-07-09T00:48:13;13.15;;;10.05;;
67191;SDS011;54120;53.504;49.426;2022-07-09T00:50:40;15.10;;;10.27;;
67191;SDS011;54120;53.504;49.426;2022-07-09T00:53:07;11.65;;;10.15;;
67191;SDS011;54120;53.504;49.426;2022-07-09T00:55:38;11.68;;;10.32;;
67191;SDS011;54120;53.504;49.426;2022-07-09T00:58:05;14.75;;;9.95;;
67191;SDS011;54120;53.504;49.426;2022-07-09T01:00:32;14.05;;;9.77;;
67191;SDS011;54120;53.504;49.426;2022-07-09T01:02:59;13.60;;;10.52;;
67191;SDS011;54120;53.504;49.426;2022-07-09T01:05:26;12.70;;;9.50;;
67191;SDS011;54120;53.504;49.426;2022-07-09T01:07:52;11.45;;;9.25;;
67191;SDS011;54120;53.504;49.426;2022-07-09T01:10:19;10.55;;;8.35;;
67191;SDS011;54120;53.504;49.426;2022-07-09T01:12:45;9.75;;;8.75;;
67191;SDS011;54120;53.504;49.426;2022-07-09T01:15:11;16.02;;;9.55;;
67191;SDS011;54120;53.504;49.426;2022-07-09T01:17:38;10.85;;;9.73;;
67191;SDS011;54120;53.504;49.426;2022-07-09T01:20:07;14.30;;;8.98;;
67191;SDS011;54120;53.504;49.426;2022-07-09T01:22:34;13.15;;;8.55;;
67191;SDS011;54120;53.504;49.426;2022-07-09T01:25:00;9.20;;;7.03;;
67191;SDS011;54120;53.504;49.426;2022-07-09T01:27:28;8.45;;;7.18;;
67191;SDS011;54120;53.504;49.426;2022-07-09T01:29:54;11.43;;;6.90;;
67191;SDS011;54120;53.504;49.426;2022-07-09T01:32:21;7.15;;;6.45;;
67191;SDS011;54120;53.504;49.426;2022-07-09T01:34:47;10.40;;;7.32;;
67191;SDS011;54120;53.504;49.426;2022-07-09T01:37:13;8.32;;;5.80;;
67191;SDS011;54120;53.504;49.426;2022-07-09T01:39:39;7.15;;;6.45;;
67191;SDS011;54120;53.504;49.426;2022-07-09T01:42:19;6.32;;;5.35;;
67191;SDS011;54120;53.504;49.426;2022-07-09T01:44:45;7.93;;;6.10;;
67191;SDS011;54120;53.504;49.426;2022-07-09T01:47:13;8.65;;;6.32;;
67191;SDS011;54120;53.504;49.426;2022-07-09T01:49:42;9.35;;;6.07;;
67191;SDS011;54120;53.504;49.426;2022-07-09T01:52:09;9.80;;;6.70;;
67191;SDS011;54120;53.504;49.426;2022-07-09T01:54:35;10.20;;;7.85;;
67191;SDS011;54120;53.504;49.426;2022-07-09T01:57:01;7.47;;;6.78;;
67191;SDS011;54120;53.504;49.426;2022-07-09T01:59:28;8.77;;;6.78;;
67191;SDS011;54120;53.504;49.426;2022-07-09T02:01:54;8.32;;;7.05;;
67191;SDS011;54120;53.504;49.426;2022-07-09T02:04:20;9.27;;;7.53;;
67191;SDS011;54120;53.504;49.426;2022-07-09T02:06:46;8.07;;;7.25;;
67191;SDS011;54120;53.504;49.426;2022-07-09T02:09:12;7.95;;;6.35;;
67191;SDS011;54120;53.504;49.426;2022-07-09T02:11:39;11.88;;;7.97;;
67191;SDS011;54120;53.504;49.426;2022-07-09T02:14:05;9.70;;;6.53;;
67191;SDS011;54120;53.504;49.426;2022-07-09T02:16:31;9.00;;;6.53;;
67191;SDS011;54120;53.504;49.426;2022-07-09T02:18:57;7.93;;;6.88;;
67191;SDS011;54120;53.504;49.426;2022-07-09T02:21:23;8.18;;;6.50;;
67191;SDS011;54120;53.504;49.426;2022-07-09T02:23:49;8.25;;;6.38;;
67191;SDS011;54120;53.504;49.426;2022-07-09T02:26:15;9.52;;;6.30;;
67191;SDS011;54120;53.504;49.426;2022-07-09T02:28:42;8.57;;;6.82;;
67191;SDS011;54120;53.504;49.426;2022-07-09T02:31:08;8.25;;;6.47;;
67191;SDS011;54120;53.504;49.426;2022-07-09T02:33:34;9.25;;;6.15;;
67191;SDS011;54120;53.504;49.426;2022-07-09T02:36:00;8.95;;;6.35;;
67191;SDS011;54120;53.504;49.426;2022-07-09T02:38:26;7.40;;;6.45;;
67191;SDS011;54120;53.504;49.426;2022-07-09T02:40:52;6.75;;;5.72;;
67191;SDS011;54120;53.504;49.426;2022-07-09T02:43:18;7.32;;;5.90;;
67191;SDS011;54120;53.504;49.426;2022-07-09T02:45:44;7.30;;;6.07;;
67191;SDS011;54120;53.504;49.426;2022-07-09T02:48:10;7.57;;;6.13;;
67191;SDS011;54120;53.504;49.426;2022-07-09T02:50:37;8.00;;;6.15;;
67191;SDS011;54120;53.504;49.426;2022-07-09T02:53:03;8.45;;;6.03;;
67191;SDS011;54120;53.504;49.426;2022-07-09T02:55:29;11.50;;;5.30;;
67191;SDS011;54120;53.504;49.426;2022-07-09T02:57:55;7.13;;;4.95;;
67191;SDS011;54120;53.504;49.426;2022-07-09T03:00:21;10.45;;;5.07;;
67191;SDS011;54120;53.504;49.426;2022-07-09T03:02:47;7.85;;;4.68;;
67191;SDS011;54120;53.504;49.426;2022-07-09T03:05:13;9.90;;;4.95;;
67191;SDS011;54120;53.504;49.426;2022-07-09T03:07:39;6.00;;;4.63;;
67191;SDS011;54120;53.504;49.426;2022-07-09T03:10:06;6.05;;;4.25;;
67191;SDS011;54120;53.504;49.426;2022-07-09T03:12:32;5.03;;;3.90;;
67191;SDS011;54120;53.504;49.426;2022-07-09T03:14:58;4.60;;;4.15;;
67191;SDS011;54120;53.504;49.426;2022-07-09T03:17:24;4.57;;;3.97;;
67191;SDS011;54120;53.504;49.426;2022-07-09T03:19:52;3.58;;;3.28;;
67191;SDS011;54120;53.504;49.426;2022-07-09T03:22:18;6.00;;;3.63;;
67191;SDS011;54120;53.504;49.426;2022-07-09T03:24:44;5.57;;;3.65;;
67191;SDS011;54120;53.504;49.426;2022-07-09T03:27:11;9.80;;;3.40;;
67191;SDS011;54120;53.504;49.426;2022-07-09T03:29:37;7.72;;;3.55;;
67191;SDS011;54120;53.504;49.426;2022-07-09T03:32:03;5.03;;;3.55;;
67191;SDS011;54120;53.504;49.426;2022-07-09T03:34:29;3.70;;;3.35;;
67191;SDS011;54120;53.504;49.426;2022-07-09T03:36:55;3.78;;;3.08;;
67191;SDS011;54120;53.504;49.426;2022-07-09T03:39:22;4.93;;;3.10;;
67191;SDS011;54120;53.504;49.426;2022-07-09T03:41:48;9.00;;;3.30;;
67191;SDS011;54120;53.504;49.426;2022-07-09T03:44:14;4.20;;;3.10;;
67191;SDS011;54120;53.504;49.426;2022-07-09T03:46:40;11.23;;;3.25;;
67191;SDS011;54120;53.504;49.426;2022-07-09T03:49:06;5.85;;;2.90;;
67191;SDS011;54120;53.504;49.426;2022-07-09T03:51:32;3.88;;;2.88;;
67191;SDS011;54120;53.504;49.426;2022-07-09T03:53:58;5.43;;;3.03;;
67191;SDS011;54120;53.504;49.426;2022-07-09T03:56:24;4.43;;;2.80;;
67191;SDS011;54120;53.504;49.426;2022-07-09T03:58:51;9.38;;;2.72;;
67191;SDS011;54120;53.504;49.426;2022-07-09T04:01:17;3.00;;;2.70;;
67191;SDS011;54120;53.504;49.426;2022-07-09T04:03:43;3.35;;;2.78;;
67191;SDS011;54120;53.504;49.426;2022-07-09T04:06:10;4.65;;;2.80;;
67191;SDS011;54120;53.504;49.426;2022-07-09T04:08:36;6.13;;;2.70;;
67191;SDS011;54120;53.504;49.426;2022-07-09T04:11:02;5.82;;;2.33;;
67191;SDS011;54120;53.504;49.426;2022-07-09T04:13:28;3.50;;;2.00;;
67191;SDS011;54120;53.504;49.426;2022-07-09T04:15:55;4.35;;;2.17;;
67191;SDS011;54120;53.504;49.426;2022-07-09T04:18:21;11.82;;;10.65;;
67191;SDS011;54120;53.504;49.426;2022-07-09T04:20:47;2.92;;;2.67;;
67191;SDS011;54120;53.504;49.426;2022-07-09T04:23:13;7.70;;;2.53;;
67191;SDS011;54120;53.504;49.426;2022-07-09T04:25:39;2.47;;;2.28;;
67191;SDS011;54120;53.504;49.426;2022-07-09T04:28:05;2.58;;;2.20;;
67191;SDS011;54120;53.504;49.426;2022-07-09T04:30:31;6.47;;;5.60;;
67191;SDS011;54120;53.504;49.426;2022-07-09T04:32:58;11.02;;;9.70;;
67191;SDS011;54120;53.504;49.426;2022-07-09T04:35:26;4.22;;;2.65;;
67191;SDS011;54120;53.504;49.426;2022-07-09T04:37:52;3.25;;;2.10;;
67191;SDS011;54120;53.504;49.426;2022-07-09T04:40:18;8.20;;;2.70;;
67191;SDS011;54120;53.504;49.426;2022-07-09T04:42:44;5.22;;;2.50;;
67191;SDS011;54120;53.504;49.426;2022-07-09T04:45:10;7.38;;;2.25;;
67191;SDS011;54120;53.504;49.426;2022-07-09T04:47:36;5.65;;;2.25;;
67191;SDS011;54120;53.504;49.426;2022-07-09T04:50:03;7.55;;;2.10;;
67191;SDS011;54120;53.504;49.426;2022-07-09T04:52:29;10.88;;;8.18;;
67191;SDS011;54120;53.504;49.426;2022-07-09T04:54:56;5.15;;;2.50;;
67191;SDS011;54120;53.504;49.426;2022-07-09T04:57:22;6.43;;;2.22;;
67191;SDS011;54120;53.504;49.426;2022-07-09T04:59:48;4.20;;;1.80;;
67191;SDS011;54120;53.504;49.426;2022-07-09T05:02:14;4.90;;;2.15;;
67191;SDS011;54120;53.504;49.426;2022-07-09T05:04:40;3.25;;;2.15;;
67191;SDS011;54120;53.504;49.426;2022-07-09T05:07:07;4.95;;;2.17;;
67191;SDS011;54120;53.504;49.426;2022-07-09T05:09:33;4.22;;;2.00;;
67191;SDS011;54120;53.504;49.426;2022-07-09T05:11:59;6.22;;;2.88;;
67191;SDS011;54120;53.504;49.426;2022-07-09T05:14:25;2.55;;;2.35;;
67191;SDS011;54120;53.504;49.426;2022-07-09T05:16:51;2.47;;;2.28;;
67191;SDS011;54120;53.504;49.426;2022-07-09T05:19:18;4.07;;;2.15;;
67191;SDS011;54120;53.504;49.426;2022-07-09T05:21:44;2.10;;;1.98;;
67191;SDS011;54120;53.504;49.426;2022-07-09T05:24:10;5.32;;;2.00;;
67191;SDS011;54120;53.504;49.426;2022-07-09T05:26:36;5.70;;;2.25;;
67191;SDS011;54120;53.504;49.426;2022-07-09T05:29:03;5.63;;;2.83;;
67191;SDS011;54120;53.504;49.426;2022-07-09T05:31:29;3.47;;;2.30;;
67191;SDS011;54120;53.504;49.426;2022-07-09T05:33:55;3.92;;;2.00;;
67191;SDS011;54120;53.504;49.426;2022-07-09T05:36:22;5.50;;;2.15;;
67191;SDS011;54120;53.504;49.426;2022-07-09T05:38:48;4.93;;;2.13;;
67191;SDS011;54120;53.504;49.426;2022-07-09T05:41:14;2.72;;;2.20;;
67191;SDS011;54120;53.504;49.426;2022-07-09T05:43:41;3.45;;;2.10;;
67191;SDS011;54120;53.504;49.426;2022-07-09T05:46:07;6.03;;;2.17;;
67191;SDS011;54120;53.504;49.426;2022-07-09T05:48:33;6.13;;;2.60;;
67191;SDS011;54120;53.504;49.426;2022-07-09T05:50:59;2.53;;;2.28;;
67191;SDS011;54120;53.504;49.426;2022-07-09T05:53:26;4.60;;;2.17;;
67191;SDS011;54120;53.504;49.426;2022-07-09T05:55:52;5.63;;;2.20;;
67191;SDS011;54120;53.504;49.426;2022-07-09T05:58:18;4.18;;;2.08;;
67191;SDS011;54120;53.504;49.426;2022-07-09T06:00:44;30.40;;;27.02;;
67191;SDS011;54120;53.504;49.426;2022-07-09T06:03:10;6.20;;;5.10;;
67191;SDS011;54120;53.504;49.426;2022-07-09T06:05:36;6.90;;;4.78;;
67191;SDS011;54120;53.504;49.426;2022-07-09T06:08:02;8.65;;;3.20;;
67191;SDS011;54120;53.504;49.426;2022-07-09T06:10:29;5.03;;;2.28;;
67191;SDS011;54120;53.504;49.426;2022-07-09T06:12:55;3.15;;;2.38;;
67191;SDS011;54120;53.504;49.426;2022-07-09T06:15:21;8.60;;;2.30;;
67191;SDS011;54120;53.504;49.426;2022-07-09T06:17:47;4.78;;;2.53;;
67191;SDS011;54120;53.504;49.426;2022-07-09T06:20:16;4.55;;;2.60;;
67191;SDS011;54120;53.504;49.426;2022-07-09T06:22:42;2.38;;;2.15;;
67191;SDS011;54120;53.504;49.426;2022-07-09T06:25:08;3.10;;;2.10;;
67191;SDS011;54120;53.504;49.426;2022-07-09T06:27:36;3.83;;;2.40;;
67191;SDS011;54120;53.504;49.426;2022-07-09T06:30:02;3.70;;;2.28;;
67191;SDS011;54120;53.504;49.426;2022-07-09T06:32:29;2.97;;;2.20;;
67191;SDS011;54120;53.504;49.426;2022-07-09T06:34:56;10.70;;;2.63;;
67191;SDS011;54120;53.504;49.426;2022-07-09T06:37:22;5.35;;;2.30;;
67191;SDS011;54120;53.504;49.426;2022-07-09T06:39:48;6.40;;;2.70;;
67191;SDS011;54120;53.504;49.426;2022-07-09T06:42:16;2.75;;;2.22;;
67191;SDS011;54120;53.504;49.426;2022-07-09T06:44:43;29.60;;;15.63;;
67191;SDS011;54120;53.504;49.426;2022-07-09T06:47:10;4.20;;;2.50;;
67191;SDS011;54120;53.504;49.426;2022-07-09T06:49:36;3.72;;;2.38;;
67191;SDS011;54120;53.504;49.426;2022-07-09T06:52:03;2.78;;;2.58;;
67191;SDS011;54120;53.504;49.426;2022-07-09T06:54:29;2.20;;;2.10;;
67191;SDS011;54120;53.504;49.426;2022-07-09T06:56:56;4.78;;;2.60;;
67191;SDS011;54120;53.504;49.426;2022-07-09T06:59:23;4.72;;;2.60;;
67191;SDS011;54120;53.504;49.426;2022-07-09T07:01:49;5.82;;;2.40;;
67191;SDS011;54120;53.504;49.426;2022-07-09T07:04:15;2.78;;;2.58;;
67191;SDS011;54120;53.504;49.426;2022-07-09T07:06:42;4.85;;;2.42;;
67191;SDS011;54120;53.504;49.426;2022-07-09T07:09:08;2.83;;;2.50;;
67191;SDS011;54120;53.504;49.426;2022-07-09T07:11:34;4.63;;;2.70;;
67191;SDS011;54120;53.504;49.426;2022-07-09T07:14:01;7.28;;;2.78;;
67191;SDS011;54120;53.504;49.426;2022-07-09T07:16:27;5.90;;;2.53;;
67191;SDS011;54120;53.504;49.426;2022-07-09T07:18:53;8.75;;;7.05;;
67191;SDS011;54120;53.504;49.426;2022-07-09T07:21:21;6.70;;;4.38;;
67191;SDS011;54120;53.504;49.426;2022-07-09T07:23:47;3.53;;;2.45;;
67191;SDS011;54120;53.504;49.426;2022-07-09T07:26:13;17.27;;;2.92;;
67191;SDS011;54120;53.504;49.426;2022-07-09T07:28:39;2.70;;;2.42;;
67191;SDS011;54120;53.504;49.426;2022-07-09T07:31:05;3.63;;;3.33;;
67191;SDS011;54120;53.504;49.426;2022-07-09T07:33:31;3.00;;;2.70;;
67191;SDS011;54120;53.504;49.426;2022-07-09T07:35:57;6.15;;;2.85;;
67191;SDS011;54120;53.504;49.426;2022-07-09T07:38:23;2.55;;;2.35;;
67191;SDS011;54120;53.504;49.426;2022-07-09T07:40:53;3.55;;;2.42;;
67191;SDS011;54120;53.504;49.426;2022-07-09T07:43:19;4.68;;;2.53;;
67191;SDS011;54120;53.504;49.426;2022-07-09T07:45:46;3.08;;;2.88;;
67191;SDS011;54120;53.504;49.426;2022-07-09T07:48:12;5.07;;;2.85;;
67191;SDS011;54120;53.504;49.426;2022-07-09T07:50:38;6.68;;;3.10;;
67191;SDS011;54120;53.504;49.426;2022-07-09T07:53:08;3.35;;;3.03;;
67191;SDS011;54120;53.504;49.426;2022-07-09T07:55:34;8.90;;;2.80;;
67191;SDS011;54120;53.504;49.426;2022-07-09T07:58:00;7.55;;;3.28;;
67191;SDS011;54120;53.504;49.426;2022-07-09T08:00:26;4.53;;;2.80;;
67191;SDS011;54120;53.504;49.426;2022-07-09T08:02:52;8.48;;;3.33;;
67191;SDS011;54120;53.504;49.426;2022-07-09T08:05:18;3.72;;;3.42;;
67191;SDS011;54120;53.504;49.426;2022-07-09T08:07:45;3.35;;;3.05;;
67191;SDS011;54120;53.504;49.426;2022-07-09T08:10:11;9.88;;;3.67;;
67191;SDS011;54120;53.504;49.426;2022-07-09T08:12:37;4.05;;;3.22;;
67191;SDS011;54120;53.504;49.426;2022-07-09T08:15:03;7.03;;;4.32;;
67191;SDS011;54120;53.504;49.426;2022-07-09T08:17:30;6.70;;;3.97;;
67191;SDS011;54120;53.504;49.426;2022-07-09T08:19:56;5.20;;;3.53;;
67191;SDS011;54120;53.504;49.426;2022-07-09T08:22:22;5.60;;;3.53;;
67191;SDS011;54120;53.504;49.426;2022-07-09T08:24:48;7.72;;;3.90;;
67191;SDS011;54120;53.504;49.426;2022-07-09T08:27:15;7.55;;;3.97;;
67191;SDS011;54120;53.504;49.426;2022-07-09T08:29:41;5.85;;;3.70;;
67191;SDS011;54120;53.504;49.426;2022-07-09T08:32:08;3.88;;;3.58;;
67191;SDS011;54120;53.504;49.426;2022-07-09T08:34:34;5.88;;;3.88;;
67191;SDS011;54120;53.504;49.426;2022-07-09T08:37:00;4.07;;;3.20;;
67191;SDS011;54120;53.504;49.426;2022-07-09T08:39:26;4.68;;;3.20;;
67191;SDS011;54120;53.504;49.426;2022-07-09T08:41:52;4.85;;;3.35;;
67191;SDS011;54120;53.504;49.426;2022-07-09T08:44:19;7.18;;;3.58;;
67191;SDS011;54120;53.504;49.426;2022-07-09T08:46:45;6.43;;;3.60;;
67191;SDS011;54120;53.504;49.426;2022-07-09T08:49:12;8.82;;;3.55;;
67191;SDS011;54120;53.504;49.426;2022-07-09T08:51:41;4.15;;;3.83;;
67191;SDS011;54120;53.504;49.426;2022-07-09T08:54:08;4.65;;;3.40;;
67191;SDS011;54120;53.504;49.426;2022-07-09T08:56:34;4.82;;;3.65;;
67191;SDS011;54120;53.504;49.426;2022-07-09T08:59:01;3.97;;;3.45;;
67191;SDS011;54120;53.504;49.426;2022-07-09T09:01:28;4.75;;;3.25;;
67191;SDS011;54120;53.504;49.426;2022-07-09T09:03:54;7.22;;;3.63;;
67191;SDS011;54120;53.504;49.426;2022-07-09T09:06:21;6.68;;;4.40;;
67191;SDS011;54120;53.504;49.426;2022-07-09T09:08:52;6.30;;;4.22;;
67191;SDS011;54120;53.504;49.426;2022-07-09T09:11:20;6.65;;;4.25;;
67191;SDS011;54120;53.504;49.426;2022-07-09T09:13:48;8.32;;;4.30;;
67191;SDS011;54120;53.504;49.426;2022-07-09T09:16:16;5.47;;;4.82;;
67191;SDS011;54120;53.504;49.426;2022-07-09T09:18:44;6.95;;;4.38;;
67191;SDS011;54120;53.504;49.426;2022-07-09T09:21:13;6.93;;;4.28;;
67191;SDS011;54120;53.504;49.426;2022-07-09T09:23:40;8.15;;;4.25;;
67191;SDS011;54120;53.504;49.426;2022-07-09T09:31:30;5.32;;;4.72;;
67191;SDS011;54120;53.504;49.426;2022-07-09T09:34:08;7.05;;;4.72;;
67191;SDS011;54120;53.504;49.426;2022-07-09T09:36:46;6.63;;;4.82;;
67191;SDS011;54120;53.504;49.426;2022-07-09T09:39:26;6.93;;;4.95;;
67191;SDS011;54120;53.504;49.426;2022-07-09T09:41:54;5.70;;;5.00;;
67191;SDS011;54120;53.504;49.426;2022-07-09T09:44:28;5.97;;;5.30;;
67191;SDS011;54120;53.504;49.426;2022-07-09T09:46:56;7.00;;;5.18;;
67191;SDS011;54120;53.504;49.426;2022-07-09T09:49:23;10.88;;;5.00;;
67191;SDS011;54120;53.504;49.426;2022-07-09T09:54:21;6.07;;;5.03;;
67191;SDS011;54120;53.504;49.426;2022-07-09T09:56:50;6.05;;;5.30;;
67191;SDS011;54120;53.504;49.426;2022-07-09T09:59:19;7.63;;;4.82;;
67191;SDS011;54120;53.504;49.426;2022-07-09T10:01:46;11.63;;;5.40;;
67191;SDS011;54120;53.504;49.426;2022-07-09T10:04:13;8.88;;;5.47;;
67191;SDS011;54120;53.504;49.426;2022-07-09T10:06:40;8.98;;;5.35;;
67191;SDS011;54120;53.504;49.426;2022-07-09T10:09:08;7.60;;;5.32;;
67191;SDS011;54120;53.504;49.426;2022-07-09T10:11:43;8.50;;;5.60;;
67191;SDS011;54120;53.504;49.426;2022-07-09T10:16:49;10.93;;;5.53;;
67191;SDS011;54120;53.504;49.426;2022-07-09T10:19:25;7.38;;;5.05;;
67191;SDS011;54120;53.504;49.426;2022-07-09T10:21:57;8.32;;;5.47;;
67191;SDS011;54120;53.504;49.426;2022-07-09T10:24:26;8.45;;;5.47;;
67191;SDS011;54120;53.504;49.426;2022-07-09T10:27:06;5.95;;;5.35;;
67191;SDS011;54120;53.504;49.426;2022-07-09T10:29:34;10.57;;;6.15;;
67191;SDS011;54120;53.504;49.426;2022-07-09T10:32:02;8.05;;;5.30;;
67191;SDS011;54120;53.504;49.426;2022-07-09T10:37:29;7.15;;;5.78;;
67191;SDS011;54120;53.504;49.426;2022-07-09T10:40:04;8.15;;;5.10;;
67191;SDS011;54120;53.504;49.426;2022-07-09T10:42:41;6.93;;;5.95;;
67191;SDS011;54120;53.504;49.426;2022-07-09T10:47:55;6.88;;;5.13;;
67191;SDS011;54120;53.504;49.426;2022-07-09T10:50:23;9.63;;;5.78;;
67191;SDS011;54120;53.504;49.426;2022-07-09T10:52:51;10.30;;;6.00;;
67191;SDS011;54120;53.504;49.426;2022-07-09T10:55:18;8.43;;;6.28;;
67191;SDS011;54120;53.504;49.426;2022-07-09T10:57:45;9.48;;;6.15;;
67191;SDS011;54120;53.504;49.426;2022-07-09T11:00:18;8.00;;;6.50;;
67191;SDS011;54120;53.504;49.426;2022-07-09T11:02:58;11.38;;;6.57;;
67191;SDS011;54120;53.504;49.426;2022-07-09T11:05:27;11.25;;;6.15;;
67191;SDS011;54120;53.504;49.426;2022-07-09T11:07:56;9.07;;;7.18;;
67191;SDS011;54120;53.504;49.426;2022-07-09T11:10:26;11.02;;;8.25;;
67191;SDS011;54120;53.504;49.426;2022-07-09T11:12:54;12.88;;;8.13;;
67191;SDS011;54120;53.504;49.426;2022-07-09T11:15:21;12.68;;;7.68;;
67191;SDS011;54120;53.504;49.426;2022-07-09T11:17:57;9.65;;;6.68;;
67191;SDS011;54120;53.504;49.426;2022-07-09T11:20:24;8.02;;;5.90;;
67191;SDS011;54120;53.504;49.426;2022-07-09T11:22:51;6.80;;;6.05;;
67191;SDS011;54120;53.504;49.426;2022-07-09T11:25:22;8.82;;;5.65;;
67191;SDS011;54120;53.504;49.426;2022-07-09T11:27:59;8.32;;;5.60;;
67191;SDS011;54120;53.504;49.426;2022-07-09T11:30:26;10.57;;;6.30;;
67191;SDS011;54120;53.504;49.426;2022-07-09T11:32:54;10.48;;;5.93;;
67191;SDS011;54120;53.504;49.426;2022-07-09T11:35:25;10.73;;;6.60;;
67191;SDS011;54120;53.504;49.426;2022-07-09T11:40:22;10.10;;;6.43;;
67191;SDS011;54120;53.504;49.426;2022-07-09T11:42:50;14.15;;;7.20;;
67191;SDS011;54120;53.504;49.426;2022-07-09T11:45:20;11.20;;;6.78;;
67191;SDS011;54120;53.504;49.426;2022-07-09T11:50:33;8.20;;;6.45;;
67191;SDS011;54120;53.504;49.426;2022-07-09T11:53:18;10.88;;;6.00;;
67191;SDS011;54120;53.504;49.426;2022-07-09T11:56:01;10.02;;;6.30;;
67191;SDS011;54120;53.504;49.426;2022-07-09T11:58:32;7.07;;;5.70;;
67191;SDS011;54120;53.504;49.426;2022-07-09T12:00:58;11.40;;;6.55;;
67191;SDS011;54120;53.504;49.426;2022-07-09T12:03:25;11.60;;;5.47;;
67191;SDS011;54120;53.504;49.426;2022-07-09T12:05:53;6.68;;;5.50;;
67191;SDS011;54120;53.504;49.426;2022-07-09T12:08:29;6.90;;;5.63;;
67191;SDS011;54120;53.504;49.426;2022-07-09T12:10:57;8.02;;;5.63;;
67191;SDS011;54120;53.504;49.426;2022-07-09T12:13:24;7.00;;;6.07;;
67191;SDS011;54120;53.504;49.426;2022-07-09T12:15:50;8.55;;;4.80;;
67191;SDS011;54120;53.504;49.426;2022-07-09T12:18:16;8.68;;;5.70;;
67191;SDS011;54120;53.504;49.426;2022-07-09T12:20:43;10.13;;;5.38;;
67191;SDS011;54120;53.504;49.426;2022-07-09T12:23:09;9.52;;;4.97;;
67191;SDS011;54120;53.504;49.426;2022-07-09T12:25:35;6.72;;;5.30;;
67191;SDS011;54120;53.504;49.426;2022-07-09T12:28:02;8.07;;;5.45;;
67191;SDS011;54120;53.504;49.426;2022-07-09T12:30:28;12.07;;;6.18;;
67191;SDS011;54120;53.504;49.426;2022-07-09T12:32:57;9.88;;;6.28;;
67191;SDS011;54120;53.504;49.426;2022-07-09T12:35:24;5.95;;;5.45;;
67191;SDS011;54120;53.504;49.426;2022-07-09T12:37:51;7.07;;;5.53;;
67191;SDS011;54120;53.504;49.426;2022-07-09T12:40:18;6.15;;;5.55;;
67191;SDS011;54120;53.504;49.426;2022-07-09T12:42:44;9.07;;;5.72;;
67191;SDS011;54120;53.504;49.426;2022-07-09T12:45:10;6.53;;;5.85;;
67191;SDS011;54120;53.504;49.426;2022-07-09T12:47:38;7.00;;;5.57;;
67191;SDS011;54120;53.504;49.426;2022-07-09T12:50:05;7.57;;;6.60;;
67191;SDS011;54120;53.504;49.426;2022-07-09T12:52:31;13.02;;;6.78;;
67191;SDS011;54120;53.504;49.426;2022-07-09T12:54:59;9.90;;;7.35;;
67191;SDS011;54120;53.504;49.426;2022-07-09T12:57:26;12.35;;;8.90;;
67191;SDS011;54120;53.504;49.426;2022-07-09T12:59:52;10.32;;;8.60;;
67191;SDS011;54120;53.504;49.426;2022-07-09T13:02:19;9.88;;;8.95;;
67191;SDS011;54120;53.504;49.426;2022-07-09T13:04:45;10.65;;;9.55;;
67191;SDS011;54120;53.504;49.426;2022-07-09T13:07:11;10.57;;;9.45;;
67191;SDS011;54120;53.504;49.426;2022-07-09T13:09:37;14.40;;;10.15;;
67191;SDS011;54120;53.504;49.426;2022-07-09T13:12:04;16.08;;;10.75;;
67191;SDS011;54120;53.504;49.426;2022-07-09T13:14:30;10.75;;;9.73;;
67191;SDS011;54120;53.504;49.426;2022-07-09T13:16:56;13.00;;;9.23;;
67191;SDS011;54120;53.504;49.426;2022-07-09T13:19:22;15.85;;;10.20;;
67191;SDS011;54120;53.504;49.426;2022-07-09T13:21:48;12.82;;;9.32;;
67191;SDS011;54120;53.504;49.426;2022-07-09T13:24:14;13.05;;;9.05;;
67191;SDS011;54120;53.504;49.426;2022-07-09T13:26:41;10.13;;;8.60;;
67191;SDS011;54120;53.504;49.426;2022-07-09T13:29:07;10.20;;;7.95;;
67191;SDS011;54120;53.504;49.426;2022-07-09T13:31:33;11.35;;;8.20;;
67191;SDS011;54120;53.504;49.426;2022-07-09T13:33:59;9.95;;;8.05;;
67191;SDS011;54120;53.504;49.426;2022-07-09T13:36:26;12.30;;;8.05;;
67191;SDS011;54120;53.504;49.426;2022-07-09T13:38:52;10.80;;;8.05;;
67191;SDS011;54120;53.504;49.426;2022-07-09T13:41:18;11.80;;;7.90;;
67191;SDS011;54120;53.504;49.426;2022-07-09T13:43:44;9.57;;;7.68;;
67191;SDS011;54120;53.504;49.426;2022-07-09T13:46:11;11.73;;;7.78;;
67191;SDS011;54120;53.504;49.426;2022-07-09T13:48:37;13.40;;;7.55;;
67191;SDS011;54120;53.504;49.426;2022-07-09T13:51:04;9.57;;;8.55;;
67191;SDS011;54120;53.504;49.426;2022-07-09T13:53:30;12.63;;;8.07;;
67191;SDS011;54120;53.504;49.426;2022-07-09T13:55:58;11.75;;;8.10;;
67191;SDS011;54120;53.504;49.426;2022-07-09T13:58:25;10.82;;;7.70;;
67191;SDS011;54120;53.504;49.426;2022-07-09T14:00:51;11.38;;;8.05;;
67191;SDS011;54120;53.504;49.426;2022-07-09T14:03:17;14.60;;;7.72;;
67191;SDS011;54120;53.504;49.426;2022-07-09T14:05:43;8.90;;;8.00;;
67191;SDS011;54120;53.504;49.426;2022-07-09T14:08:09;10.25;;;7.85;;
67191;SDS011;54120;53.504;49.426;2022-07-09T14:10:54;8.75;;;7.50;;
67191;SDS011;54120;53.504;49.426;2022-07-09T14:13:24;8.88;;;7.57;;
67191;SDS011;54120;53.504;49.426;2022-07-09T14:15:55;10.70;;;8.73;;
67191;SDS011;54120;53.504;49.426;2022-07-09T14:18:22;9.63;;;7.65;;
67191;SDS011;54120;53.504;49.426;2022-07-09T14:20:48;11.32;;;8.27;;
67191;SDS011;54120;53.504;49.426;2022-07-09T14:23:14;10.30;;;8.10;;
67191;SDS011;54120;53.504;49.426;2022-07-09T14:25:41;10.13;;;7.88;;
67191;SDS011;54120;53.504;49.426;2022-07-09T14:28:08;12.25;;;8.15;;
67191;SDS011;54120;53.504;49.426;2022-07-09T14:30:34;10.75;;;7.57;;
67191;SDS011;54120;53.504;49.426;2022-07-09T14:33:00;8.77;;;7.55;;
67191;SDS011;54120;53.504;49.426;2022-07-09T14:35:26;13.80;;;7.53;;
67191;SDS011;54120;53.504;49.426;2022-07-09T14:37:52;9.57;;;7.18;;
67191;SDS011;54120;53.504;49.426;2022-07-09T14:40:18;9.98;;;7.88;;
67191;SDS011;54120;53.504;49.426;2022-07-09T14:42:45;10.25;;;7.72;;
67191;SDS011;54120;53.504;49.426;2022-07-09T14:45:11;10.38;;;7.57;;
67191;SDS011;54120;53.504;49.426;2022-07-09T14:47:37;8.02;;;7.22;;
67191;SDS011;54120;53.504;49.426;2022-07-09T14:50:03;8.40;;;6.70;;
67191;SDS011;54120;53.504;49.426;2022-07-09T14:52:30;6.72;;;6.03;;